Terminal Aerodrome Forecast
Issued by NWS Atlanta, GA

Home | Current Version | Previous Version | Text Only | Print | Product List | Glossary On
Versions: 1 2 3 4 5 6 7 8 9 10 11 12 13 14
386
FTUS42 KFFC 281354 AAA
TAFMCN
TAF AMD
KMCN 281354Z 2814/2912 25005KT P6SM BKN008 OVC015
     FM281600 25010KT P6SM SCT035 SCT150
     FM281800 25012G20KT P6SM BKN050
     FM290100 25004KT P6SM SCT100
     FM290800 25003KT P6SM BKN100 PROB30 2910/2912 6SM -TSRA BR
      BKN025CB=

USA.gov is the U.S. government's official web portal to all federal, state and local government web resources and services.